createdAt,value
2023-04-01T00:00:02.850Z,77.50
2023-04-01T00:02:29.677Z,77.44
2023-04-01T00:04:56.533Z,77.70
2023-04-01T00:07:23.375Z,78.12
2023-04-01T00:09:50.350Z,78.44
2023-04-01T00:12:17.350Z,77.92
2023-04-01T00:14:44.512Z,78.16
2023-04-01T00:17:11.645Z,77.99
2023-04-01T00:19:38.718Z,78.10
2023-04-01T00:22:12.440Z,78.06
2023-04-01T00:24:39.743Z,77.67
2023-04-01T00:27:06.685Z,77.19
2023-04-01T00:29:33.823Z,77.83
2023-04-01T00:32:00.666Z,77.64
2023-04-01T00:34:27.999Z,77.41
2023-04-01T00:36:55.113Z,77.61
2023-04-01T00:39:22.299Z,77.89
2023-04-01T00:41:49.251Z,78.93
2023-04-01T00:44:26.467Z,79.96
2023-04-01T00:46:53.780Z,80.86
2023-04-01T00:49:27.906Z,80.92
2023-04-01T00:51:59.530Z,81.20
2023-04-01T00:54:29.521Z,82.49
2023-04-01T00:57:08.361Z,84.11
2023-04-01T00:59:42.215Z,85.17
2023-04-01T01:02:13.592Z,84.94
2023-04-01T01:04:41.030Z,86.21
2023-04-01T01:07:36.080Z,86.05
2023-04-01T01:10:19.030Z,82.88
2023-04-01T01:13:31.159Z,81.95
2023-04-01T01:16:05.373Z,81.95
2023-04-01T01:18:50.074Z,80.53
2023-04-01T01:21:48.658Z,81.34
2023-04-01T01:24:36.159Z,80.29
2023-04-01T01:27:19.340Z,80.58
2023-04-01T01:29:56.244Z,80.92
2023-04-01T01:32:52.200Z,81.08
2023-04-01T01:35:31.699Z,79.64
2023-04-01T01:38:15.317Z,80.22
2023-04-01T01:40:49.048Z,78.58
2023-04-01T01:43:23.920Z,78.68
2023-04-01T01:45:58.261Z,78.87
2023-04-01T01:48:28.782Z,79.16
2023-04-01T01:50:55.852Z,80.21
2023-04-01T01:53:22.742Z,81.15
2023-04-01T01:55:49.880Z,80.66
2023-04-01T01:58:43.324Z,78.58
2023-04-01T02:01:18.384Z,77.43
2023-04-01T02:03:47.370Z,77.20
2023-04-01T02:06:21.107Z,77.45
2023-04-01T02:09:01.827Z,76.64
2023-04-01T02:11:51.264Z,76.63
2023-04-01T02:14:46.032Z,76.17
2023-04-01T02:17:22.807Z,76.66
2023-04-01T02:20:07.271Z,78.31
2023-04-01T02:22:46.250Z,79.11
2023-04-01T02:25:18.895Z,80.34
2023-04-01T02:27:47.759Z,82.12
2023-04-01T02:30:18.157Z,83.66
2023-04-01T02:32:46.095Z,84.40
2023-04-01T02:35:16.495Z,85.53
2023-04-01T02:37:46.397Z,88.18
2023-04-01T02:40:16.147Z,90.82
2023-04-01T02:42:43.162Z,92.28
2023-04-01T02:45:11.525Z,93.13
2023-04-01T02:47:41.253Z,93.58
2023-04-01T02:50:09.670Z,92.62
2023-04-01T02:52:36.764Z,90.71
2023-04-01T02:55:05.492Z,90.69
2023-04-01T02:57:32.378Z,89.65
2023-04-01T02:59:59.815Z,90.00
2023-04-01T03:02:26.911Z,88.72
2023-04-01T03:04:53.807Z,88.63
2023-04-01T03:07:20.611Z,88.89
2023-04-01T03:09:47.360Z,88.62
2023-04-01T03:12:14.182Z,89.75
2023-04-01T03:14:41.205Z,91.67
2023-04-01T03:17:08.190Z,89.73
2023-04-01T03:19:35.025Z,91.52
2023-04-01T03:22:01.832Z,92.09
2023-04-01T03:24:28.631Z,91.65
2023-04-01T03:26:55.551Z,91.40
2023-04-01T03:29:22.323Z,91.60
2023-04-01T03:31:49.072Z,91.29
2023-04-01T03:34:15.999Z,91.24
2023-04-01T03:36:42.764Z,90.36
2023-04-01T03:39:09.580Z,90.58
2023-04-01T03:41:40.340Z,91.44
2023-04-01T03:44:07.451Z,90.83
2023-04-01T03:46:34.526Z,90.86
2023-04-01T03:49:01.338Z,88.64
2023-04-01T03:51:28.245Z,88.79
2023-04-01T03:53:55.344Z,88.40
2023-04-01T03:56:22.204Z,87.07
2023-04-01T03:58:48.978Z,87.65
2023-04-01T04:01:22.192Z,87.03
2023-04-01T04:03:52.382Z,87.54
2023-04-01T04:06:20.667Z,86.43
2023-04-01T04:08:47.561Z,86.11
2023-04-01T04:11:14.631Z,86.26
2023-04-01T04:13:42.357Z,84.18
2023-04-01T04:16:10.920Z,84.79
2023-04-01T04:18:38.546Z,84.64
2023-04-01T04:21:06.080Z,83.91
2023-04-01T04:23:34.512Z,83.69
2023-04-01T04:26:07.484Z,84.01
2023-04-01T04:28:34.971Z,84.25
2023-04-01T04:31:02.910Z,84.08
2023-04-01T04:33:29.732Z,83.27
2023-04-01T04:35:58.775Z,83.57
2023-04-01T04:38:26.561Z,84.58
2023-04-01T04:40:53.472Z,84.00
2023-04-01T04:43:20.516Z,83.48
2023-04-01T04:45:47.881Z,83.36
2023-04-01T04:48:19.451Z,82.29
2023-04-01T04:50:51.400Z,81.60
2023-04-01T04:53:20.310Z,81.56
2023-04-01T04:55:51.122Z,82.46
2023-04-01T04:58:19.222Z,83.08
2023-04-01T05:00:47.073Z,82.67
2023-04-01T05:03:14.856Z,83.07
2023-04-01T05:05:52.321Z,81.99
2023-04-01T05:08:19.315Z,81.97
2023-04-01T05:10:47.075Z,81.43
2023-04-01T05:13:13.884Z,81.26
2023-04-01T05:15:41.059Z,81.08
2023-04-01T05:18:08.067Z,80.57
2023-04-01T05:20:34.947Z,80.48
2023-04-01T05:23:01.874Z,79.69
2023-04-01T05:25:28.804Z,79.13
2023-04-01T05:27:55.889Z,79.52
2023-04-01T05:30:22.835Z,79.92
2023-04-01T05:32:49.726Z,78.65
2023-04-01T05:35:16.648Z,78.46
2023-04-01T05:37:43.605Z,79.28
2023-04-01T05:40:11.420Z,79.13
2023-04-01T05:42:38.620Z,79.01
2023-04-01T05:45:06.354Z,80.16
2023-04-01T05:47:33.182Z,80.83
2023-04-01T05:50:00.136Z,81.78
2023-04-01T05:52:27.228Z,83.00
2023-04-01T05:54:54.045Z,83.68
2023-04-01T05:57:20.980Z,83.16
2023-04-01T05:59:47.961Z,83.54
2023-04-01T06:02:19.583Z,85.43
2023-04-01T06:04:47.278Z,86.69
2023-04-01T06:07:17.238Z,88.68
2023-04-01T06:09:45.931Z,89.43
2023-04-01T06:12:51.368Z,91.03
2023-04-01T06:15:35.130Z,91.09
2023-04-01T06:18:37.213Z,90.75
2023-04-01T06:21:45.961Z,93.95
2023-04-01T06:24:45.582Z,94.52
2023-04-01T06:27:36.135Z,95.23
2023-04-01T06:30:39.191Z,96.72
2023-04-01T06:33:36.249Z,96.66
2023-04-01T06:36:38.934Z,97.98
2023-04-01T06:39:44.071Z,98.08
2023-04-01T06:43:05.397Z,98.33
2023-04-01T06:45:56.831Z,99.23
2023-04-01T06:49:04.617Z,98.51
2023-04-01T06:52:27.405Z,100.00
2023-04-01T06:55:18.700Z,100.00
2023-04-01T06:57:52.249Z,99.93
2023-04-01T07:00:41.661Z,99.97
2023-04-01T07:03:40.933Z,100.00
2023-04-01T07:06:47.551Z,100.00
2023-04-01T07:09:23.589Z,100.00
2023-04-01T07:11:57.700Z,100.00
2023-04-01T07:14:37.253Z,100.00
2023-04-01T07:17:17.809Z,100.00
2023-04-01T07:19:53.692Z,100.00
2023-04-01T07:22:46.882Z,99.45
2023-04-01T07:25:23.550Z,100.00
2023-04-01T07:27:54.019Z,100.00
2023-04-01T07:30:26.384Z,99.66
2023-04-01T07:32:59.368Z,98.88
2023-04-01T07:35:54.440Z,97.30
2023-04-01T07:38:49.812Z,97.54
2023-04-01T07:41:43.485Z,96.12
2023-04-01T07:44:28.924Z,96.03
2023-04-01T07:47:33.704Z,96.63
2023-04-01T07:50:29.523Z,96.81
2023-04-01T07:53:25.258Z,99.42
2023-04-01T07:56:05.903Z,95.91
2023-04-01T07:59:34.384Z,98.84
2023-04-01T08:02:20.947Z,99.02
2023-04-01T08:05:07.465Z,100.00
2023-04-01T08:07:53.630Z,100.00
2023-04-01T08:10:49.082Z,100.00
2023-04-01T08:14:29.174Z,100.00
2023-04-01T08:17:52.691Z,100.00
2023-04-01T08:20:53.516Z,100.00
2023-04-01T08:23:34.782Z,100.00
2023-04-01T08:26:37.722Z,100.00
2023-04-01T08:29:27.709Z,100.00
2023-04-01T08:32:19.282Z,100.00
2023-04-01T08:35:00.278Z,100.00
2023-04-01T08:37:36.219Z,100.00
2023-04-01T08:40:36.630Z,100.00
2023-04-01T08:43:25.225Z,100.00
2023-04-01T08:46:50.599Z,100.00
2023-04-01T08:49:52.771Z,100.00
2023-04-01T08:52:52.973Z,100.00
2023-04-01T08:55:53.274Z,97.13
2023-04-01T08:58:58.196Z,95.27
2023-04-01T09:02:05.685Z,95.78
2023-04-01T09:04:50.639Z,92.24
2023-04-01T09:07:46.554Z,92.92
2023-04-01T09:10:26.487Z,94.35
2023-04-01T09:13:28.633Z,94.46
2023-04-01T09:16:33.007Z,92.95
2023-04-01T09:19:30.948Z,92.68
2023-04-01T09:22:24.852Z,90.08
2023-04-01T09:25:22.547Z,91.41
2023-04-01T09:28:19.293Z,91.35
2023-04-01T09:31:19.328Z,90.57
2023-04-01T09:34:01.508Z,91.56
2023-04-01T09:36:56.848Z,91.28
2023-04-01T09:39:44.946Z,88.25
2023-04-01T09:42:23.763Z,89.19
2023-04-01T09:45:02.143Z,87.24
2023-04-01T09:47:46.469Z,85.58
2023-04-01T09:50:50.547Z,84.60
2023-04-01T09:54:02.539Z,83.32
2023-04-01T09:57:04.867Z,82.75
2023-04-01T10:00:05.911Z,84.29
2023-04-01T10:03:12.839Z,84.25
2023-04-01T10:06:05.121Z,84.32
2023-04-01T10:09:09.570Z,84.71
2023-04-01T10:12:07.519Z,83.15
2023-04-01T10:14:52.375Z,83.73
2023-04-01T10:18:01.182Z,84.04
2023-04-01T10:21:04.735Z,84.43
2023-04-01T10:24:36.900Z,84.38
2023-04-01T10:27:50.682Z,84.15
2023-04-01T10:31:19.643Z,83.32
2023-04-01T10:34:29.447Z,82.20
2023-04-01T10:36:59.866Z,80.39
2023-04-01T10:40:03.910Z,79.20
2023-04-01T10:43:00.212Z,78.70
2023-04-01T10:46:05.029Z,77.57
2023-04-01T10:49:22.110Z,74.67
2023-04-01T10:52:29.945Z,74.32
2023-04-01T10:55:53.881Z,72.57
2023-04-01T10:58:57.475Z,72.41
2023-04-01T11:01:39.021Z,70.78
2023-04-01T11:05:00.200Z,69.54
2023-04-01T11:08:22.742Z,69.20
2023-04-01T11:11:43.604Z,70.65
2023-04-01T11:14:42.212Z,71.62
2023-04-01T11:17:51.650Z,73.55
2023-04-01T11:21:03.264Z,77.76
2023-04-01T11:24:05.483Z,79.18
2023-04-01T11:27:12.339Z,78.18
2023-04-01T11:29:47.030Z,79.29
2023-04-01T11:32:48.880Z,81.39
2023-04-01T11:35:44.108Z,79.31
2023-04-01T11:38:35.237Z,79.41
2023-04-01T11:41:26.490Z,78.17
2023-04-01T11:44:15.922Z,79.70
2023-04-01T11:47:13.591Z,77.98
2023-04-01T11:50:06.573Z,79.23
2023-04-01T11:53:05.611Z,80.48
2023-04-01T11:56:03.334Z,78.06
2023-04-01T11:58:32.803Z,78.79
2023-04-01T12:01:47.092Z,77.95
2023-04-01T12:04:31.933Z,73.52
2023-04-01T12:07:37.231Z,69.73
2023-04-01T12:10:26.029Z,67.08
2023-04-01T12:13:06.416Z,64.32
2023-04-01T12:15:42.375Z,68.32
2023-04-01T12:18:48.412Z,70.91
2023-04-01T12:21:27.305Z,72.10
2023-04-01T12:24:41.507Z,74.71
2023-04-01T12:27:39.120Z,74.89
2023-04-01T12:30:30.849Z,77.21
2023-04-01T12:33:12.748Z,75.37
2023-04-01T12:36:14.228Z,77.16
2023-04-01T12:39:46.588Z,78.48
2023-04-01T12:43:06.507Z,78.72
2023-04-01T12:45:37.101Z,79.40
2023-04-01T12:48:25.975Z,79.22
2023-04-01T12:51:23.063Z,79.19
2023-04-01T12:54:17.550Z,78.89
2023-04-01T12:57:14.126Z,79.31
2023-04-01T13:00:31.520Z,79.35
2023-04-01T13:03:38.192Z,76.94
2023-04-01T13:06:34.719Z,76.79
2023-04-01T13:09:52.438Z,77.57
2023-04-01T13:12:54.049Z,78.35
2023-04-01T13:15:37.337Z,81.85
2023-04-01T13:18:37.498Z,81.10
2023-04-01T13:21:59.436Z,84.40
2023-04-01T13:25:01.352Z,87.53
2023-04-01T13:27:41.322Z,88.37
2023-04-01T13:30:45.797Z,85.03
2023-04-01T13:33:34.715Z,81.95
2023-04-01T13:36:42.784Z,82.12
2023-04-01T13:39:51.199Z,83.45
2023-04-01T13:42:36.302Z,84.63
2023-04-01T13:45:20.635Z,85.69
2023-04-01T13:48:27.868Z,89.83
2023-04-01T13:51:21.311Z,90.03
2023-04-01T13:54:06.466Z,91.95
2023-04-01T13:57:27.171Z,93.43
2023-04-01T14:00:18.353Z,94.29
2023-04-01T14:03:31.221Z,92.69
2023-04-01T14:06:33.385Z,89.83
2023-04-01T14:09:48.212Z,89.36
2023-04-01T14:12:30.913Z,91.33
2023-04-01T14:15:25.346Z,88.03
2023-04-01T14:18:14.222Z,86.38
2023-04-01T14:21:28.021Z,85.40
2023-04-01T14:24:26.060Z,84.95
2023-04-01T14:27:21.280Z,88.80
2023-04-01T14:30:15.286Z,89.08
2023-04-01T14:33:25.696Z,89.80
2023-04-01T14:36:44.469Z,88.84
2023-04-01T14:40:06.486Z,88.92
2023-04-01T14:43:07.232Z,89.21
2023-04-01T14:46:15.658Z,91.30
2023-04-01T14:49:15.597Z,91.32
2023-04-01T14:51:43.004Z,91.90
2023-04-01T14:54:12.820Z,91.02
2023-04-01T14:56:51.607Z,90.54
2023-04-01T14:59:24.468Z,90.34
2023-04-01T15:02:15.283Z,90.29
2023-04-01T15:05:14.448Z,90.62
2023-04-01T15:08:12.902Z,89.71
2023-04-01T15:10:54.643Z,89.61
2023-04-01T15:13:31.225Z,90.20
2023-04-01T15:16:25.872Z,90.99
2023-04-01T15:19:24.868Z,89.05
2023-04-01T15:22:18.658Z,88.07
2023-04-01T15:25:07.066Z,88.62
2023-04-01T15:27:45.264Z,86.78
2023-04-01T15:30:31.903Z,86.30
2023-04-01T15:33:26.254Z,85.11
2023-04-01T15:36:36.198Z,86.20
2023-04-01T15:39:17.876Z,85.77
2023-04-01T15:42:23.409Z,86.82
2023-04-01T15:44:53.232Z,88.24
2023-04-01T15:47:26.433Z,88.01
2023-04-01T15:50:47.470Z,88.60
2023-04-01T15:53:36.805Z,87.79
2023-04-01T15:56:24.707Z,86.97
2023-04-01T15:59:25.140Z,86.68
2023-04-01T16:02:20.754Z,86.32
2023-04-01T16:05:20.425Z,86.31
2023-04-01T16:08:31.195Z,85.78
2023-04-01T16:11:27.088Z,88.22
2023-04-01T16:14:43.527Z,88.89
2023-04-01T16:17:39.669Z,89.76
2023-04-01T16:20:21.813Z,92.03
2023-04-01T16:23:02.740Z,93.06
2023-04-01T16:25:46.238Z,96.37
2023-04-01T16:28:32.341Z,97.45
2023-04-01T16:31:14.557Z,94.78
2023-04-01T16:33:59.904Z,94.10
2023-04-01T16:37:15.524Z,96.07
2023-04-01T16:40:02.229Z,94.93
2023-04-01T16:43:05.792Z,94.65
2023-04-01T16:45:49.609Z,94.94
2023-04-01T16:48:30.455Z,95.54
2023-04-01T16:51:12.518Z,93.49
2023-04-01T16:53:46.737Z,93.11
2023-04-01T16:56:29.665Z,94.33
2023-04-01T16:59:22.732Z,94.57
2023-04-01T17:02:08.011Z,93.66
2023-04-01T17:04:58.815Z,93.53
2023-04-01T17:08:16.104Z,97.21
2023-04-01T17:11:02.188Z,99.08
2023-04-01T17:14:10.338Z,100.00
2023-04-01T17:17:11.886Z,100.00
2023-04-01T17:20:06.659Z,100.00
2023-04-01T17:23:13.406Z,100.00
2023-04-01T17:26:01.475Z,100.00
2023-04-01T17:28:53.744Z,100.00
2023-04-01T17:31:41.706Z,100.00
2023-04-01T17:34:34.178Z,100.00
2023-04-01T17:37:10.223Z,100.00
2023-04-01T17:40:09.658Z,100.00
2023-04-01T17:43:00.623Z,100.00
2023-04-01T17:45:55.616Z,100.00
2023-04-01T17:48:40.664Z,100.00
2023-04-01T17:51:49.969Z,100.00
2023-04-01T17:54:45.836Z,100.00
2023-04-01T17:57:48.017Z,100.00
2023-04-01T18:00:25.192Z,100.00
2023-04-01T18:03:22.016Z,100.00
2023-04-01T18:06:08.943Z,100.00
2023-04-01T18:09:26.594Z,100.00
2023-04-01T18:12:25.249Z,100.00
2023-04-01T18:15:18.661Z,100.00
2023-04-01T18:17:51.376Z,100.00
2023-04-01T18:20:49.246Z,100.00
2023-04-01T18:23:29.087Z,100.00
2023-04-01T18:26:13.722Z,100.00
2023-04-01T18:28:53.917Z,100.00
2023-04-01T18:31:33.832Z,100.00
2023-04-01T18:34:18.638Z,100.00
2023-04-01T18:37:12.533Z,100.00
2023-04-01T18:40:00.470Z,100.00
2023-04-01T18:43:17.699Z,100.00
2023-04-01T18:46:07.883Z,100.00
2023-04-01T18:49:06.282Z,100.00
2023-04-01T18:51:48.649Z,100.00
2023-04-01T18:54:41.442Z,100.00
2023-04-01T18:57:16.875Z,100.00
2023-04-01T18:59:54.073Z,100.00
2023-04-01T19:02:44.147Z,100.00
2023-04-01T19:05:27.585Z,100.00
2023-04-01T19:08:12.817Z,100.00
2023-04-01T19:11:11.748Z,100.00
2023-04-01T19:13:56.852Z,100.00
2023-04-01T19:16:51.371Z,100.00
2023-04-01T19:20:08.673Z,100.00
2023-04-01T19:22:51.007Z,100.00
2023-04-01T19:25:33.551Z,100.00
2023-04-01T19:28:51.884Z,100.00
2023-04-01T19:31:46.262Z,100.00
2023-04-01T19:34:32.547Z,100.00
2023-04-01T19:37:30.639Z,100.00
2023-04-01T19:40:36.198Z,100.00
2023-04-01T19:43:39.422Z,100.00
2023-04-01T19:46:29.943Z,100.00
2023-04-01T19:49:49.870Z,100.00
2023-04-01T19:52:42.251Z,100.00
2023-04-01T19:55:37.304Z,100.00
2023-04-01T19:58:27.283Z,100.00
2023-04-01T20:00:59.546Z,100.00
2023-04-01T20:03:51.121Z,100.00
2023-04-01T20:07:02.883Z,100.00
2023-04-01T20:10:04.112Z,100.00
2023-04-01T20:12:58.886Z,100.00
2023-04-01T20:15:47.677Z,100.00
2023-04-01T20:18:37.772Z,100.00
2023-04-01T20:21:50.817Z,100.00
2023-04-01T20:24:34.700Z,100.00
2023-04-01T20:27:18.087Z,100.00
2023-04-01T20:30:25.718Z,100.00
2023-04-01T20:33:22.752Z,100.00
2023-04-01T20:36:10.754Z,100.00
2023-04-01T20:39:36.071Z,100.00
2023-04-01T20:42:21.333Z,100.00
2023-04-01T20:45:34.793Z,100.00
2023-04-01T20:48:27.287Z,100.00
2023-04-01T20:51:22.729Z,100.00
2023-04-01T20:54:27.820Z,100.00
2023-04-01T20:57:27.971Z,100.00
2023-04-01T21:00:34.629Z,100.00
2023-04-01T21:03:01.428Z,100.00
2023-04-01T21:05:51.351Z,100.00
2023-04-01T21:08:52.345Z,100.00
2023-04-01T21:11:59.729Z,100.00
2023-04-01T21:15:00.297Z,100.00
2023-04-01T21:17:35.395Z,100.00
2023-04-01T21:20:05.182Z,100.00
2023-04-01T21:23:07.322Z,100.00
2023-04-01T21:26:20.569Z,100.00
2023-04-01T21:29:43.631Z,100.00
2023-04-01T21:32:57.919Z,100.00
2023-04-01T21:35:43.284Z,100.00
2023-04-01T21:38:37.374Z,100.00
2023-04-01T21:41:28.840Z,100.00
2023-04-01T21:44:33.486Z,100.00
2023-04-01T21:47:19.493Z,100.00
2023-04-01T21:50:23.583Z,100.00
2023-04-01T21:53:35.277Z,100.00
2023-04-01T21:56:32.803Z,100.00
2023-04-01T21:59:47.122Z,100.00
2023-04-01T22:03:06.083Z,100.00
2023-04-01T22:06:12.757Z,100.00
2023-04-01T22:08:51.995Z,100.00
2023-04-01T22:11:55.342Z,100.00
2023-04-01T22:14:32.387Z,100.00
2023-04-01T22:17:39.124Z,100.00
2023-04-01T22:20:41.787Z,100.00
2023-04-01T22:23:36.830Z,100.00
2023-04-01T22:26:23.288Z,100.00
2023-04-01T22:29:08.076Z,100.00
2023-04-01T22:32:03.474Z,100.00
2023-04-01T22:35:11.700Z,100.00
2023-04-01T22:38:15.080Z,100.00
2023-04-01T22:40:50.329Z,100.00
2023-04-01T22:43:33.567Z,100.00
2023-04-01T22:46:04.734Z,100.00
2023-04-01T22:48:50.365Z,100.00
2023-04-01T22:51:28.552Z,100.00
2023-04-01T22:54:04.321Z,100.00
2023-04-01T22:56:44.323Z,100.00
2023-04-01T22:59:24.568Z,100.00
2023-04-01T23:02:02.127Z,100.00
2023-04-01T23:04:43.085Z,100.00
2023-04-01T23:07:47.378Z,100.00
2023-04-01T23:10:29.748Z,100.00
2023-04-01T23:13:04.611Z,100.00
2023-04-01T23:15:34.200Z,100.00
2023-04-01T23:18:23.126Z,100.00
2023-04-01T23:21:16.329Z,100.00
2023-04-01T23:24:20.764Z,100.00
2023-04-01T23:27:01.697Z,100.00
2023-04-01T23:29:29.318Z,100.00
2023-04-01T23:32:05.216Z,100.00
2023-04-01T23:34:35.834Z,100.00
2023-04-01T23:37:17.036Z,100.00
2023-04-01T23:39:52.187Z,100.00
2023-04-01T23:42:28.014Z,100.00
2023-04-01T23:45:06.869Z,100.00
2023-04-01T23:47:39.324Z,100.00
2023-04-01T23:50:18.702Z,100.00
2023-04-01T23:52:58.362Z,100.00
2023-04-01T23:55:35.590Z,100.00
2023-04-01T23:58:43.466Z,100.00
